Time;durP1;ratioP1;P1;durP2;ratioP2;P2;SDS_P1;SDS_P2;PMS_P1;PMS_P2;Temp;Humidity;BMP_temperature;BMP_pressure;BME280_temperature;BME280_humidity;BME280_pressure;Samples;Min_cycle;Max_cycle;Signal;HPM_P1;HPM_P2
2023/01/15 00:00:56;;;;;;;4.30;1.50;;;6.40;99.90;;;;;;5052869;28;20397;-72
2023/01/15 00:03:22;;;;;;;3.13;1.70;;;6.40;99.90;;;;;;5052892;28;20518;-72
2023/01/15 00:05:48;;;;;;;4.40;2.00;;;6.40;99.90;;;;;;5052060;28;20269;-71
2023/01/15 00:08:14;;;;;;;4.30;1.90;;;6.40;99.90;;;;;;5052851;28;20173;-72
2023/01/15 00:10:39;;;;;;;2.13;1.60;;;6.40;99.90;;;;;;5052859;28;20167;-73
2023/01/15 00:13:05;;;;;;;5.20;2.43;;;6.40;99.90;;;;;;5052688;28;20535;-71
2023/01/15 00:15:31;;;;;;;8.70;2.03;;;6.40;99.90;;;;;;5051720;28;20563;-72
2023/01/15 00:17:56;;;;;;;9.03;2.00;;;6.40;99.90;;;;;;5052762;28;20174;-71
2023/01/15 00:20:22;;;;;;;4.20;2.20;;;6.40;99.90;;;;;;5052713;28;20171;-72
2023/01/15 00:22:48;;;;;;;5.10;1.70;;;6.30;99.90;;;;;;5052758;28;20277;-72
2023/01/15 00:27:58;;;;;;;10.50;2.27;;;6.30;99.90;;;;;;5052739;28;20635;-72
2023/01/15 00:30:24;;;;;;;3.00;1.93;;;6.40;99.90;;;;;;5052646;28;20508;-70
2023/01/15 00:32:50;;;;;;;3.37;2.30;;;6.30;99.90;;;;;;5052702;28;20749;-71
2023/01/15 00:35:18;;;;;;;3.70;2.07;;;6.40;99.90;;;;;;5051438;28;20198;-71
2023/01/15 00:37:44;;;;;;;4.70;2.80;;;6.40;99.90;;;;;;5052439;28;20782;-71
2023/01/15 00:40:11;;;;;;;6.17;1.73;;;6.40;99.90;;;;;;5052478;28;20412;-71
2023/01/15 00:42:37;;;;;;;3.53;1.50;;;6.40;99.90;;;;;;5052414;28;20563;-70
2023/01/15 00:45:08;;;;;;;6.70;1.73;;;6.40;99.90;;;;;;5051734;28;20425;-70
2023/01/15 00:47:46;;;;;;;8.10;2.77;;;6.40;99.90;;;;;;5052556;28;20632;-71
2023/01/15 00:50:14;;;;;;;3.30;2.90;;;6.40;99.90;;;;;;5052258;28;20828;-70
2023/01/15 00:52:40;;;;;;;3.80;1.80;;;6.30;99.90;;;;;;5052224;28;20435;-71
2023/01/15 00:55:07;;;;;;;4.10;1.83;;;6.30;99.90;;;;;;5051644;28;20425;-70
2023/01/15 00:57:33;;;;;;;5.63;1.83;;;6.30;99.90;;;;;;5052292;28;20444;-70
2023/01/15 00:59:58;;;;;;;3.87;2.50;;;6.30;99.90;;;;;;5052216;28;20433;-70
2023/01/15 01:02:24;;;;;;;2.00;1.60;;;6.30;99.90;;;;;;5052160;28;20980;-70
2023/01/15 01:04:50;;;;;;;9.10;2.20;;;6.30;99.90;;;;;;5051656;28;20325;-70
2023/01/15 01:07:17;;;;;;;4.40;2.03;;;6.20;99.90;;;;;;5051966;28;20194;-70
2023/01/15 01:09:43;;;;;;;2.90;2.07;;;6.20;99.90;;;;;;5055578;28;20174;-70
2023/01/15 01:12:08;;;;;;;2.17;1.80;;;6.20;99.90;;;;;;5055719;28;20409;-69
2023/01/15 01:14:37;;;;;;;2.10;1.70;;;6.20;99.90;;;;;;5054947;28;20434;-70
2023/01/15 01:17:03;;;;;;;8.53;2.00;;;6.20;99.90;;;;;;5055637;28;20179;-71
2023/01/15 01:19:29;;;;;;;3.70;2.20;;;6.20;99.90;;;;;;5056150;28;20868;-72
2023/01/15 01:21:55;;;;;;;5.23;1.77;;;6.20;99.90;;;;;;5055405;28;20500;-71
2023/01/15 01:24:23;;;;;;;5.77;1.90;;;6.10;99.90;;;;;;5054731;28;20268;-71
2023/01/15 01:26:49;;;;;;;2.27;1.83;;;6.10;99.90;;;;;;5055185;28;20961;-72
2023/01/15 01:29:17;;;;;;;2.80;2.40;;;6.10;99.90;;;;;;5055446;28;20394;-70
2023/01/15 01:31:44;;;;;;;5.60;2.50;;;6.20;99.90;;;;;;5054088;28;20403;-71
2023/01/15 01:34:10;;;;;;;3.37;1.80;;;6.20;99.90;;;;;;5055015;28;20404;-71
2023/01/15 01:36:38;;;;;;;2.70;1.87;;;6.20;99.90;;;;;;5054722;28;20437;-70
2023/01/15 01:39:06;;;;;;;4.93;2.00;;;6.20;99.90;;;;;;5055248;28;20890;-70
2023/01/15 01:41:32;;;;;;;2.80;1.70;;;6.20;99.90;;;;;;5054307;28;20416;-72
2023/01/15 01:44:36;;;;;;;10.80;2.20;;;6.10;99.90;;;;;;5054745;28;20453;-69
2023/01/15 01:47:08;;;;;;;2.40;1.57;;;6.10;99.90;;;;;;5055024;28;20412;-71
2023/01/15 01:49:37;;;;;;;5.80;2.17;;;6.10;99.90;;;;;;5055110;28;20413;-71
2023/01/15 01:52:07;;;;;;;4.90;1.80;;;6.10;99.90;;;;;;5055136;28;20484;-71
2023/01/15 01:54:35;;;;;;;2.47;2.17;;;6.10;99.90;;;;;;5054074;28;20414;-69
2023/01/15 01:57:01;;;;;;;1.97;1.80;;;6.10;99.90;;;;;;5054910;28;20420;-70
2023/01/15 01:59:28;;;;;;;1.70;1.40;;;6.20;99.90;;;;;;5054996;28;20440;-70
2023/01/15 02:01:54;;;;;;;4.00;1.67;;;6.10;99.90;;;;;;5054538;28;20394;-71
2023/01/15 02:04:22;;;;;;;2.77;1.63;;;6.20;99.90;;;;;;5053987;28;20789;-71
2023/01/15 02:06:50;;;;;;;3.27;1.73;;;6.20;99.90;;;;;;5054804;28;20591;-71
2023/01/15 02:09:16;;;;;;;2.03;1.77;;;6.20;99.90;;;;;;5054735;28;20455;-70
2023/01/15 02:11:41;;;;;;;3.23;1.47;;;6.20;99.90;;;;;;5055144;28;20875;-69
2023/01/15 02:14:34;;;;;;;1.87;1.50;;;6.20;99.90;;;;;;5054478;28;20404;-70
2023/01/15 02:17:12;;;;;;;7.03;2.10;;;6.20;99.90;;;;;;5054578;28;20173;-69
2023/01/15 02:19:50;;;;;;;3.73;1.80;;;6.20;99.90;;;;;;5054029;28;20448;-70
2023/01/15 02:22:43;;;;;;;2.20;1.70;;;6.20;99.90;;;;;;5054136;28;20965;-70
2023/01/15 02:25:32;;;;;;;2.73;2.17;;;6.20;99.90;;;;;;5053705;28;20911;-71
2023/01/15 02:28:12;;;;;;;3.00;1.70;;;6.20;99.90;;;;;;5054370;28;20902;-70
2023/01/15 02:30:45;;;;;;;4.30;2.53;;;6.20;99.90;;;;;;5054212;28;20458;-71
2023/01/15 02:33:20;;;;;;;3.23;2.20;;;6.20;99.90;;;;;;5054210;28;20484;-70
2023/01/15 02:35:53;;;;;;;24.23;2.37;;;6.10;99.90;;;;;;5053345;28;20438;-71
2023/01/15 02:38:22;;;;;;;6.20;1.90;;;6.10;99.90;;;;;;5052911;28;20477;-70
2023/01/15 02:40:52;;;;;;;8.93;1.87;;;6.20;99.90;;;;;;5053975;28;20428;-70
2023/01/15 02:43:20;;;;;;;10.80;2.37;;;6.20;99.90;;;;;;5054251;28;20453;-69
2023/01/15 02:45:49;;;;;;;2.37;1.53;;;6.20;99.90;;;;;;5053367;28;20766;-69
2023/01/15 02:48:18;;;;;;;2.67;1.60;;;6.20;99.90;;;;;;5054031;28;20392;-70
2023/01/15 02:50:49;;;;;;;5.80;1.73;;;6.20;99.90;;;;;;5053988;28;20832;-70
2023/01/15 02:53:22;;;;;;;3.37;1.57;;;6.20;99.90;;;;;;5053810;28;20405;-70
2023/01/15 02:55:50;;;;;;;2.20;1.87;;;6.20;99.90;;;;;;5053092;28;20429;-70
2023/01/15 02:58:31;;;;;;;8.97;2.30;;;6.30;99.90;;;;;;5052152;28;20774;-70
2023/01/15 03:01:00;;;;;;;4.50;1.93;;;6.30;99.90;;;;;;5053635;28;20410;-70
2023/01/15 03:03:34;;;;;;;2.27;2.00;;;6.30;99.90;;;;;;5053829;28;20451;-71
2023/01/15 03:06:11;;;;;;;1.80;1.70;;;6.20;99.90;;;;;;5052973;28;20424;-70
2023/01/15 03:08:37;;;;;;;4.73;2.10;;;6.20;99.90;;;;;;5053616;28;20836;-70
2023/01/15 03:11:12;;;;;;;4.60;1.90;;;6.20;99.90;;;;;;5053460;28;20421;-69
2023/01/15 03:14:08;;;;;;;3.53;1.73;;;6.30;99.70;;;;;;5053493;28;20477;-71
2023/01/15 03:16:42;;;;;;;2.70;1.80;;;6.30;96.20;;;;;;5052299;28;20820;-70
2023/01/15 03:19:32;;;;;;;7.47;1.80;;;6.20;93.70;;;;;;5053338;28;20503;-70
2023/01/15 03:22:16;;;;;;;4.13;2.00;;;6.30;93.80;;;;;;5053384;28;20788;-69
2023/01/15 03:24:59;;;;;;;1.70;1.30;;;6.30;88.30;;;;;;5052707;28;20902;-70
2023/01/15 03:27:26;;;;;;;5.43;2.10;;;6.30;78.50;;;;;;5053303;28;20515;-70
2023/01/15 03:29:58;;;;;;;2.20;1.80;;;6.30;78.40;;;;;;5053179;28;20394;-70
2023/01/15 03:32:24;;;;;;;10.13;2.20;;;6.30;77.30;;;;;;5053048;28;20440;-69
2023/01/15 03:34:54;;;;;;;12.13;1.90;;;6.30;67.00;;;;;;5052306;28;20511;-70
2023/01/15 03:37:23;;;;;;;6.20;3.20;;;6.30;65.80;;;;;;5052987;28;20418;-69
2023/01/15 03:39:50;;;;;;;1.93;1.73;;;6.30;62.00;;;;;;5053105;28;20485;-71
2023/01/15 03:42:37;;;;;;;3.87;2.00;;;6.30;67.00;;;;;;5053020;28;20476;-70
2023/01/15 03:45:25;;;;;;;6.90;2.10;;;6.30;47.90;;;;;;5052250;28;20414;-69
2023/01/15 03:47:58;;;;;;;4.60;1.90;;;6.30;41.80;;;;;;5052979;28;20392;-69
2023/01/15 03:50:28;;;;;;;5.90;2.13;;;6.30;35.60;;;;;;5052758;28;20757;-70
2023/01/15 03:53:29;;;;;;;6.53;1.77;;;6.20;32.00;;;;;;5053069;28;20419;-69
2023/01/15 03:56:16;;;;;;;5.13;1.90;;;6.20;34.10;;;;;;5051753;28;21032;-71
2023/01/15 03:58:49;;;;;;;5.83;2.10;;;6.10;29.40;;;;;;5052991;28;20399;-70
2023/01/15 04:01:19;;;;;;;6.30;2.20;;;6.10;28.50;;;;;;5052832;28;20950;-69
2023/01/15 04:03:47;;;;;;;1.90;1.40;;;6.20;26.40;;;;;;5052702;28;20536;-69
2023/01/15 04:06:14;;;;;;;5.43;2.07;;;6.20;14.80;;;;;;5052096;28;20420;-71
2023/01/15 04:08:42;;;;;;;3.63;1.67;;;6.10;9.20;;;;;;5052792;28;20388;-70
2023/01/15 04:11:08;;;;;;;12.93;1.87;;;6.20;7.30;;;;;;5052521;28;20392;-70
2023/01/15 04:13:34;;;;;;;4.43;2.17;;;6.20;3.70;;;;;;5052717;28;20456;-69
2023/01/15 04:16:00;;;;;;;2.47;1.70;;;6.20;2.10;;;;;;5052082;28;20423;-70
2023/01/15 04:18:26;;;;;;;5.77;2.67;;;6.20;1.00;;;;;;5052744;28;20173;-68
2023/01/15 04:20:53;;;;;;;2.70;2.40;;;6.10;1.00;;;;;;5051443;28;20762;-70
2023/01/15 04:23:19;;;;;;;5.87;2.07;;;6.00;1.00;;;;;;5052704;28;21054;-71
2023/01/15 04:25:45;;;;;;;8.83;2.70;;;6.00;1.00;;;;;;5050593;28;20512;-70
2023/01/15 04:28:11;;;;;;;5.40;2.50;;;6.10;1.00;;;;;;5052529;28;20972;-70
2023/01/15 04:30:38;;;;;;;2.07;1.90;;;6.10;1.00;;;;;;5052693;28;20167;-71
2023/01/15 04:33:04;;;;;;;9.83;2.40;;;6.00;1.00;;;;;;5052581;28;20408;-69
2023/01/15 04:35:30;;;;;;;2.80;2.47;;;6.10;1.00;;;;;;5050759;28;20479;-70
2023/01/15 04:37:57;;;;;;;6.40;2.03;;;6.10;1.00;;;;;;5052501;28;20402;-69
2023/01/15 04:45:57;;;;;;;3.30;1.60;;;6.20;1.00;;;;;;5055689;28;20423;-71
2023/01/15 04:48:23;;;;;;;2.90;1.40;;;6.10;1.00;;;;;;5056255;28;20423;-72
2023/01/15 04:50:49;;;;;;;8.73;2.60;;;6.10;1.00;;;;;;5056294;28;20932;-71
2023/01/15 04:53:15;;;;;;;4.93;2.23;;;6.10;1.00;;;;;;5056160;28;20413;-71
2023/01/15 04:55:41;;;;;;;7.67;3.30;;;6.10;1.00;;;;;;5055375;28;20284;-70
2023/01/15 04:58:07;;;;;;;7.97;2.37;;;6.10;1.00;;;;;;5055923;28;20193;-70
2023/01/15 05:00:32;;;;;;;10.23;2.23;;;6.10;1.00;;;;;;5055835;28;20611;-71
2023/01/15 05:02:58;;;;;;;7.47;2.60;;;6.10;1.00;;;;;;5055881;28;20448;-69
2023/01/15 05:05:24;;;;;;;5.30;1.90;;;6.10;1.00;;;;;;5055349;28;20221;-69
2023/01/15 05:07:50;;;;;;;7.50;2.03;;;6.10;1.00;;;;;;5055937;28;20160;-70
2023/01/15 05:10:15;;;;;;;5.60;2.20;;;6.10;1.00;;;;;;5055771;28;20822;-70
2023/01/15 05:12:41;;;;;;;6.80;1.90;;;6.10;1.00;;;;;;5055889;28;20183;-71
2023/01/15 05:15:07;;;;;;;3.60;2.20;;;6.10;1.00;;;;;;5054911;28;20279;-69
2023/01/15 05:17:33;;;;;;;3.97;2.17;;;6.10;1.00;;;;;;5055497;28;20177;-70
2023/01/15 05:19:58;;;;;;;4.23;1.93;;;6.10;1.00;;;;;;5055635;28;20405;-71
2023/01/15 05:22:24;;;;;;;3.50;2.13;;;6.10;1.00;;;;;;5055405;28;20441;-69
2023/01/15 05:24:50;;;;;;;7.40;2.93;;;6.10;1.00;;;;;;5055077;28;20200;-69
2023/01/15 05:27:16;;;;;;;5.50;2.40;;;6.10;1.00;;;;;;5055571;28;20395;-69
2023/01/15 05:29:42;;;;;;;7.73;3.00;;;6.10;1.00;;;;;;5055379;28;20899;-69
2023/01/15 05:32:08;;;;;;;6.20;2.47;;;6.00;1.00;;;;;;5055496;28;20402;-70
2023/01/15 05:34:33;;;;;;;2.40;2.20;;;6.00;1.00;;;;;;5054387;28;20190;-72
2023/01/15 05:36:59;;;;;;;8.27;2.80;;;6.10;1.00;;;;;;5055368;28;20184;-70
2023/01/15 05:39:25;;;;;;;5.87;2.17;;;6.00;1.00;;;;;;5055740;28;20170;-71
2023/01/15 05:41:52;;;;;;;3.97;2.47;;;6.00;1.00;;;;;;5055221;28;20174;-71
2023/01/15 05:44:28;;;;;;;11.20;3.00;;;6.00;1.00;;;;;;5054322;28;20571;-71
2023/01/15 05:47:01;;;;;;;7.43;2.13;;;5.90;1.00;;;;;;5055161;28;20419;-70
2023/01/15 05:49:30;;;;;;;7.67;3.00;;;5.90;1.00;;;;;;5055290;28;20397;-70
2023/01/15 05:51:56;;;;;;;4.10;1.53;;;5.90;1.00;;;;;;5053867;28;20800;-69
2023/01/15 05:54:28;;;;;;;6.53;2.10;;;5.90;1.00;;;;;;5053215;28;20960;-69
2023/01/15 05:56:54;;;;;;;4.93;1.73;;;5.90;1.00;;;;;;5054914;28;20432;-69
2023/01/15 05:59:22;;;;;;;5.63;2.17;;;5.90;1.00;;;;;;5054901;28;20435;-70
2023/01/15 06:01:48;;;;;;;8.90;2.07;;;5.90;1.00;;;;;;5054824;28;20495;-71
2023/01/15 06:04:16;;;;;;;11.53;2.90;;;5.90;1.00;;;;;;5054474;28;20532;-70
2023/01/15 06:06:43;;;;;;;4.23;2.57;;;6.00;1.00;;;;;;5054585;28;20430;-71
2023/01/15 06:09:09;;;;;;;4.87;1.80;;;6.00;1.00;;;;;;5054672;28;20467;-71
2023/01/15 06:11:35;;;;;;;8.33;1.90;;;6.00;1.00;;;;;;5054345;28;20386;-69
2023/01/15 06:14:00;;;;;;;7.63;2.93;;;6.00;1.00;;;;;;5054542;28;20451;-71
2023/01/15 06:16:26;;;;;;;3.30;1.97;;;6.10;1.00;;;;;;5054016;28;20250;-70
2023/01/15 06:18:52;;;;;;;7.80;1.70;;;6.10;1.00;;;;;;5054438;28;20179;-69
2023/01/15 06:21:18;;;;;;;7.13;2.43;;;6.10;1.00;;;;;;5053243;28;20420;-69
2023/01/15 06:23:44;;;;;;;6.63;2.97;;;6.10;1.00;;;;;;5054282;28;20441;-70
2023/01/15 06:26:16;;;;;;;3.13;1.93;;;6.10;1.00;;;;;;5053750;28;20189;-71
2023/01/15 06:28:44;;;;;;;9.70;2.53;;;6.10;1.00;;;;;;5054268;28;20391;-71
2023/01/15 06:31:12;;;;;;;9.47;2.40;;;6.10;1.00;;;;;;5054120;28;20399;-70
2023/01/15 06:33:38;;;;;;;4.87;2.30;;;6.10;1.00;;;;;;5054206;28;20531;-72
2023/01/15 06:36:06;;;;;;;6.43;2.00;;;6.10;1.00;;;;;;5053525;28;20460;-70
2023/01/15 06:38:32;;;;;;;7.93;2.10;;;6.20;1.00;;;;;;5054064;28;20173;-70
2023/01/15 06:40:59;;;;;;;7.73;2.93;;;6.20;1.00;;;;;;5054016;28;20463;-70
2023/01/15 06:49:13;;;;;;;3.57;1.87;;;6.30;1.00;;;;;;5071387;28;20407;-72
2023/01/15 06:51:39;;;;;;;5.00;2.30;;;6.30;1.00;;;;;;5055047;28;20502;-72
2023/01/15 06:54:05;;;;;;;6.63;3.00;;;6.30;1.00;;;;;;5063139;28;20177;-70
2023/01/15 06:56:30;;;;;;;5.57;1.83;;;6.30;1.00;;;;;;5053290;28;20180;-73
2023/01/15 06:58:56;;;;;;;5.17;2.70;;;6.30;1.00;;;;;;5036752;28;20180;-71
2023/01/15 07:01:22;;;;;;;2.13;1.80;;;6.30;1.00;;;;;;5033063;28;20219;-71
2023/01/15 07:03:47;;;;;;;4.20;2.20;;;6.30;1.00;;;;;;5033494;28;20204;-69
2023/01/15 07:06:13;;;;;;;3.80;2.33;;;6.20;1.00;;;;;;5031872;28;20547;-68
2023/01/15 07:08:39;;;;;;;9.77;2.27;;;6.20;1.00;;;;;;5032578;28;20181;-69
2023/01/15 07:11:08;;;;;;;5.37;2.70;;;6.20;1.00;;;;;;5033617;28;20191;-71
2023/01/15 07:13:34;;;;;;;4.30;2.57;;;6.20;1.00;;;;;;5033665;28;20403;-71
2023/01/15 07:16:01;;;;;;;7.87;3.27;;;6.20;1.00;;;;;;5032947;28;20439;-69
2023/01/15 07:18:29;;;;;;;7.50;2.77;;;6.20;1.00;;;;;;5033539;28;20470;-69
2023/01/15 07:20:56;;;;;;;3.20;1.90;;;6.10;99.90;;;;;;5032170;28;20422;-69
2023/01/15 07:23:23;;;;;;;6.80;2.47;;;6.10;99.90;;;;;;5033149;28;20511;-70
2023/01/15 07:25:51;;;;;;;8.03;2.40;;;6.20;99.90;;;;;;5031549;28;20891;-71
2023/01/15 07:28:16;;;;;;;5.97;2.30;;;6.20;99.90;;;;;;5033440;28;20456;-69
2023/01/15 07:30:42;;;;;;;5.03;2.00;;;6.20;99.90;;;;;;5033448;28;20826;-70
2023/01/15 07:33:08;;;;;;;2.57;2.37;;;6.20;99.90;;;;;;5033264;28;20201;-71
2023/01/15 07:35:35;;;;;;;5.20;2.20;;;6.20;99.90;;;;;;5032410;28;20201;-70
2023/01/15 07:38:01;;;;;;;2.90;2.70;;;6.20;99.90;;;;;;5033342;28;20636;-70
2023/01/15 07:40:27;;;;;;;3.70;2.63;;;6.20;99.90;;;;;;5033157;28;20502;-71
2023/01/15 07:51:11;;;;;;;4.33;2.70;;;6.10;99.90;;;;;;5033332;28;20411;-71
2023/01/15 07:53:36;;;;;;;3.47;2.10;;;6.10;99.90;;;;;;5032945;28;20407;-72
2023/01/15 07:56:02;;;;;;;8.23;2.60;;;6.10;99.90;;;;;;5031373;28;20439;-69
2023/01/15 07:58:28;;;;;;;5.30;2.30;;;6.10;99.90;;;;;;5031498;28;20171;-71
2023/01/15 08:00:53;;;;;;;5.80;2.80;;;6.10;99.90;;;;;;5033010;28;20891;-67
2023/01/15 08:03:19;;;;;;;8.30;2.70;;;6.10;99.90;;;;;;5031798;28;20196;-71
2023/01/15 08:05:45;;;;;;;3.03;2.17;;;6.10;99.90;;;;;;5032119;28;20193;-73
2023/01/15 08:08:15;;;;;;;8.00;2.23;;;6.10;99.90;;;;;;5032918;28;20882;-69
2023/01/15 08:16:10;;;;;;;4.60;2.40;;;6.10;99.90;;;;;;5032242;28;20425;-73
2023/01/15 08:18:36;;;;;;;2.33;2.10;;;6.20;99.90;;;;;;5036526;28;20416;-72
2023/01/15 08:21:02;;;;;;;3.10;2.10;;;6.10;99.90;;;;;;5035819;28;20419;-72
2023/01/15 08:23:27;;;;;;;8.50;2.40;;;6.10;99.90;;;;;;5036691;28;20460;-72
2023/01/15 08:25:53;;;;;;;8.00;2.00;;;6.10;99.90;;;;;;5034744;28;20196;-69
2023/01/15 08:28:19;;;;;;;5.63;2.70;;;6.10;99.90;;;;;;5036656;28;20165;-73
2023/01/15 08:30:44;;;;;;;9.07;2.13;;;6.10;99.90;;;;;;5035338;28;20257;-70
2023/01/15 08:33:10;;;;;;;6.83;2.67;;;6.10;99.90;;;;;;5035321;28;20179;-70
2023/01/15 08:35:36;;;;;;;4.37;2.37;;;6.10;99.90;;;;;;5035746;28;20250;-69
2023/01/15 08:38:06;;;;;;;2.60;2.00;;;6.20;99.90;;;;;;5036497;28;20579;-72
2023/01/15 08:40:31;;;;;;;7.77;2.33;;;6.20;99.90;;;;;;5036523;28;20201;-70
2023/01/15 08:42:57;;;;;;;7.57;2.90;;;6.20;99.90;;;;;;5036345;28;20942;-72
2023/01/15 08:45:23;;;;;;;10.63;2.53;;;6.20;99.90;;;;;;5035631;28;20424;-69
2023/01/15 08:47:48;;;;;;;11.03;2.90;;;6.30;99.90;;;;;;5036196;28;20180;-71
2023/01/15 08:50:14;;;;;;;6.30;1.77;;;6.30;99.90;;;;;;5035225;28;20179;-69
2023/01/15 08:52:40;;;;;;;12.40;2.80;;;6.30;99.90;;;;;;5036221;28;20656;-70
2023/01/15 08:55:07;;;;;;;3.30;1.90;;;6.30;99.90;;;;;;5035494;28;20251;-69
2023/01/15 08:57:32;;;;;;;8.03;2.20;;;6.30;99.90;;;;;;5036095;28;20960;-72
2023/01/15 08:59:58;;;;;;;8.10;2.20;;;6.30;99.90;;;;;;5036104;28;20484;-71
2023/01/15 09:02:24;;;;;;;2.73;1.80;;;6.30;99.90;;;;;;5035924;28;20430;-73
2023/01/15 09:04:51;;;;;;;8.73;2.80;;;6.30;99.90;;;;;;5035221;28;20191;-72
2023/01/15 09:07:17;;;;;;;5.83;2.50;;;6.30;99.90;;;;;;5036148;28;20580;-70
2023/01/15 09:09:42;;;;;;;3.20;2.13;;;6.40;99.90;;;;;;5035907;28;20452;-73
2023/01/15 09:12:08;;;;;;;6.90;2.07;;;6.40;99.90;;;;;;5034547;28;20259;-69
2023/01/15 09:14:34;;;;;;;10.63;1.90;;;6.40;99.90;;;;;;5035194;28;20198;-73
2023/01/15 09:16:59;;;;;;;6.80;2.20;;;6.40;99.90;;;;;;5035790;28;20279;-73
2023/01/15 09:19:25;;;;;;;4.77;2.30;;;6.40;99.90;;;;;;5035756;28;20262;-73
2023/01/15 09:21:51;;;;;;;13.50;2.80;;;6.40;99.90;;;;;;5035860;28;20505;-72
2023/01/15 09:24:17;;;;;;;2.80;1.80;;;6.40;99.90;;;;;;5035116;28;20241;-71
2023/01/15 09:26:42;;;;;;;6.23;2.30;;;6.30;99.90;;;;;;5035722;28;20590;-71
2023/01/15 09:29:09;;;;;;;5.37;2.70;;;6.40;99.90;;;;;;5033030;28;20659;-70
2023/01/15 09:31:35;;;;;;;3.53;2.27;;;6.30;99.90;;;;;;5035575;28;20173;-72
2023/01/15 09:34:01;;;;;;;12.50;2.93;;;6.30;99.90;;;;;;5035310;28;20811;-70
2023/01/15 09:36:34;;;;;;;7.70;2.40;;;6.30;99.90;;;;;;5034870;28;20662;-70
2023/01/15 09:39:01;;;;;;;9.80;2.40;;;6.30;99.90;;;;;;5035431;28;20228;-72
2023/01/15 09:44:49;;;;;;;2.10;1.80;;;6.40;99.90;;;;;;5034325;28;20524;-73
2023/01/15 09:47:35;;;;;;;3.93;1.77;;;6.40;99.90;;;;;;5034162;28;20425;-73
2023/01/15 09:50:20;;;;;;;2.23;2.03;;;6.40;99.90;;;;;;5035196;28;20791;-72
2023/01/15 09:52:48;;;;;;;11.87;2.30;;;6.40;99.90;;;;;;5035141;28;20417;-71
2023/01/15 09:55:24;;;;;;;10.20;2.47;;;6.40;99.90;;;;;;5033253;28;20441;-70
2023/01/15 09:57:54;;;;;;;4.47;2.30;;;6.40;99.90;;;;;;5034006;28;20424;-73
2023/01/15 10:00:25;;;;;;;6.50;2.20;;;6.40;99.90;;;;;;5034869;28;20893;-72
2023/01/15 10:03:09;;;;;;;7.80;2.00;;;6.40;99.90;;;;;;5034784;28;20463;-72
2023/01/15 10:05:48;;;;;;;6.53;3.33;;;6.40;99.90;;;;;;5033112;28;20434;-70
2023/01/15 10:08:31;;;;;;;3.73;1.70;;;6.40;99.90;;;;;;5034745;28;20406;-73
2023/01/15 10:12:33;;;;;;;12.43;2.30;;;6.40;99.90;;;;;;5034765;28;20406;-73
2023/01/15 10:14:13;;;;;;;4.40;2.10;;;6.50;99.90;;;;;;5034181;28;20436;-72
2023/01/15 10:16:39;;;;;;;3.80;2.40;;;6.60;99.90;;;;;;5034244;28;20895;-73
2023/01/15 10:19:04;;;;;;;8.20;2.20;;;6.60;99.90;;;;;;5033311;28;20416;-73
2023/01/15 10:21:46;;;;;;;2.10;1.90;;;6.60;99.90;;;;;;5035128;28;20186;-73
2023/01/15 10:24:18;;;;;;;4.93;2.13;;;6.60;99.90;;;;;;5034298;28;20227;-71
2023/01/15 10:26:58;;;;;;;4.60;2.13;;;6.60;99.90;;;;;;5033067;28;20930;-69
2023/01/15 10:29:35;;;;;;;3.90;3.53;;;6.60;99.90;;;;;;5035606;28;20425;-73
2023/01/15 10:32:13;;;;;;;6.20;1.93;;;6.50;99.90;;;;;;5034513;28;20442;-74
2023/01/15 10:35:01;;;;;;;2.93;2.73;;;6.50;99.90;;;;;;5037538;28;20443;-72
2023/01/15 10:37:30;;;;;;;5.33;2.37;;;6.60;99.90;;;;;;5053697;28;20979;-74
2023/01/15 10:40:17;;;;;;;10.43;2.67;;;6.60;99.90;;;;;;5035147;28;20469;-73
2023/01/15 10:42:49;;;;;;;3.47;2.10;;;6.60;95.80;;;;;;5033914;28;20461;-73
2023/01/15 10:45:25;;;;;;;3.43;1.93;;;6.70;97.20;;;;;;5036892;28;20442;-73
2023/01/15 10:48:04;;;;;;;4.33;2.87;;;6.70;91.60;;;;;;5038921;28;20452;-74
2023/01/15 10:50:31;;;;;;;2.30;1.83;;;6.80;91.30;;;;;;5032871;28;20464;-71
2023/01/15 10:53:07;;;;;;;2.00;1.70;;;6.80;91.30;;;;;;5032668;28;20967;-69
2023/01/15 10:55:46;;;;;;;2.53;1.80;;;6.80;91.30;;;;;;5033046;28;20924;-70
2023/01/15 10:58:27;;;;;;;6.17;1.83;;;6.80;91.30;;;;;;5034069;28;20461;-72
2023/01/15 11:01:10;;;;;;;11.50;3.00;;;6.70;91.30;;;;;;5053680;28;20483;-72
2023/01/15 11:03:39;;;;;;;9.60;2.27;;;6.80;91.30;;;;;;5048605;28;20461;-71
2023/01/15 11:06:10;;;;;;;2.97;1.90;;;6.80;90.50;;;;;;5032902;28;20432;-72
2023/01/15 11:08:39;;;;;;;3.30;2.00;;;6.80;91.30;;;;;;5036994;28;20432;-71
2023/01/15 11:20:30;;;;;;;2.70;2.47;;;6.70;73.10;;;;;;5033850;28;20434;-70
2023/01/15 11:23:04;;;;;;;2.10;1.90;;;6.70;68.20;;;;;;5048651;28;20456;-70
2023/01/15 11:25:31;;;;;;;9.60;2.80;;;6.80;64.70;;;;;;5040415;28;20449;-76
2023/01/15 11:28:03;;;;;;;2.77;2.13;;;6.80;64.10;;;;;;5045564;28;20468;-75
2023/01/15 11:30:37;;;;;;;3.80;2.27;;;6.80;55.70;;;;;;5041440;28;20426;-75
2023/01/15 11:33:05;;;;;;;8.47;2.30;;;6.80;57.10;;;;;;5036182;28;20778;-76
2023/01/15 11:35:33;;;;;;;7.33;2.43;;;6.90;51.20;;;;;;5050636;28;20553;-70
2023/01/15 11:38:10;;;;;;;5.20;2.40;;;6.90;50.50;;;;;;5050994;28;20416;-76
2023/01/15 11:40:35;;;;;;;2.20;2.00;;;7.00;44.50;;;;;;5033252;28;20408;-72
2023/01/15 11:51:29;;;;;;;3.83;2.37;;;6.70;14.60;;;;;;5052281;28;20401;-70
2023/01/15 11:54:03;;;;;;;3.43;2.03;;;6.70;11.50;;;;;;5041494;28;20441;-71
2023/01/15 11:56:31;;;;;;;4.17;1.53;;;6.70;48.70;;;;;;5032322;28;20898;-70
2023/01/15 11:59:01;;;;;;;1.90;1.80;;;6.50;77.30;;;;;;5043680;28;20576;-70
2023/01/15 12:01:49;;;;;;;1.83;1.73;;;6.30;91.10;;;;;;5052840;28;20455;-71
2023/01/15 12:04:29;;;;;;;2.40;1.60;;;6.20;91.10;;;;;;5039511;28;20465;-71
2023/01/15 12:06:56;;;;;;;12.40;2.47;;;6.20;91.10;;;;;;5033005;28;20417;-73
2023/01/15 12:09:32;;;;;;;2.03;1.30;;;6.30;91.10;;;;;;5033338;28;20470;-73
2023/01/15 12:12:29;;;;;;;2.90;1.70;;;6.30;91.10;;;;;;5032927;28;20956;-73
2023/01/15 12:15:08;;;;;;;2.40;2.10;;;6.30;91.10;;;;;;5031880;28;20526;-71
2023/01/15 12:18:05;;;;;;;2.30;2.20;;;6.20;91.10;;;;;;5032767;28;20408;-71
2023/01/15 12:20:39;;;;;;;4.50;2.40;;;6.20;91.10;;;;;;5052899;28;20408;-71
2023/01/15 12:23:31;;;;;;;2.13;2.03;;;6.20;91.10;;;;;;5050836;28;20810;-70
2023/01/15 12:26:16;;;;;;;3.23;2.20;;;6.30;91.10;;;;;;5051282;28;20428;-71
2023/01/15 12:29:11;;;;;;;4.57;1.57;;;6.30;70.80;;;;;;5039233;28;20468;-72
2023/01/15 12:31:45;;;;;;;3.53;1.80;;;6.30;87.30;;;;;;5032614;28;20401;-71
2023/01/15 12:34:24;;;;;;;2.90;2.37;;;6.40;63.60;;;;;;5048418;28;20494;-71
2023/01/15 12:37:06;;;;;;;9.80;2.07;;;6.40;64.30;;;;;;5051958;28;20929;-71
2023/01/15 12:39:41;;;;;;;2.80;1.67;;;6.40;59.90;;;;;;5031345;28;20422;-71
2023/01/15 12:45:02;;;;;;;2.17;1.97;;;6.40;65.80;;;;;;5050938;28;20429;-71
2023/01/15 12:47:38;;;;;;;7.23;1.77;;;6.40;57.90;;;;;;5047764;28;20434;-72
2023/01/15 12:50:44;;;;;;;2.80;1.80;;;6.40;55.70;;;;;;5032646;28;20408;-71
2023/01/15 12:53:13;;;;;;;2.07;1.70;;;6.40;57.90;;;;;;5041896;28;20416;-72
2023/01/15 12:56:06;;;;;;;4.47;1.67;;;6.40;54.90;;;;;;5050067;28;20436;-72
2023/01/15 12:58:46;;;;;;;3.67;1.70;;;6.50;52.40;;;;;;5035890;28;20431;-71
2023/01/15 13:01:16;;;;;;;1.77;1.30;;;6.50;50.70;;;;;;5031195;28;20892;-72
2023/01/15 13:04:03;;;;;;;2.80;1.87;;;6.50;38.90;;;;;;5033695;28;20495;-73
2023/01/15 13:06:30;;;;;;;4.33;1.60;;;6.60;34.40;;;;;;5035376;28;20468;-73
2023/01/15 13:09:07;;;;;;;1.87;1.67;;;6.60;36.90;;;;;;5052284;28;20472;-73
2023/01/15 13:11:33;;;;;;;2.40;1.40;;;6.60;29.80;;;;;;5055892;28;20758;-73
2023/01/15 13:13:59;;;;;;;2.43;1.50;;;6.60;33.20;;;;;;5038150;28;20429;-73
2023/01/15 13:16:44;;;;;;;3.80;1.87;;;6.60;34.10;;;;;;5034911;28;20409;-74
2023/01/15 13:19:25;;;;;;;2.00;1.90;;;6.60;33.00;;;;;;5047829;28;20488;-72
2023/01/15 13:21:55;;;;;;;2.63;2.13;;;6.60;29.90;;;;;;5035464;28;20978;-72
2023/01/15 13:24:55;;;;;;;3.67;1.77;;;6.60;34.30;;;;;;5034218;28;20454;-72
2023/01/15 13:27:32;;;;;;;2.63;1.70;;;6.60;33.30;;;;;;5035746;28;20413;-72
2023/01/15 13:30:19;;;;;;;1.97;1.63;;;6.60;43.40;;;;;;5036935;28;20432;-71
2023/01/15 13:32:55;;;;;;;2.90;1.40;;;6.50;42.30;;;;;;5054250;28;20498;-73
2023/01/15 13:35:32;;;;;;;2.40;1.60;;;6.50;49.00;;;;;;5035660;28;20853;-72
2023/01/15 13:38:02;;;;;;;3.70;1.77;;;6.40;49.30;;;;;;5036340;28;20501;-71
2023/01/15 13:40:42;;;;;;;2.40;1.73;;;6.30;53.40;;;;;;5054790;28;20444;-71
2023/01/15 13:43:27;;;;;;;10.83;2.20;;;6.30;64.80;;;;;;5039865;28;20465;-70
2023/01/15 13:45:54;;;;;;;1.83;1.23;;;6.20;71.90;;;;;;5034343;28;20410;-72
2023/01/15 13:48:28;;;;;;;1.50;1.40;;;6.10;91.10;;;;;;5036203;28;20418;-70
2023/01/15 13:50:56;;;;;;;4.80;1.73;;;6.00;91.00;;;;;;5044921;28;20761;-71
2023/01/15 13:53:31;;;;;;;2.17;1.60;;;5.90;96.70;;;;;;5053939;28;20414;-71
2023/01/15 13:56:09;;;;;;;6.97;1.47;;;5.80;99.90;;;;;;5052076;28;20444;-70
2023/01/15 13:58:41;;;;;;;2.07;1.47;;;5.80;99.90;;;;;;5034450;28;20406;-72
2023/01/15 14:01:21;;;;;;;6.33;1.47;;;5.70;99.90;;;;;;5035223;28;20450;-72
2023/01/15 14:04:07;;;;;;;5.20;1.90;;;5.70;99.90;;;;;;5034925;28;20850;-70
2023/01/15 14:06:44;;;;;;;3.30;1.50;;;5.60;99.90;;;;;;5046882;28;20424;-71
2023/01/15 14:09:28;;;;;;;3.43;2.40;;;5.60;99.90;;;;;;5054798;28;20397;-69